Wilkinsville, Tennessee
Current Conditions -  °F | °C
As of 11:50 AM on Friday 21 Nov 2014 (Local Time) from KNQA Reporting Station
Broken Clouds Broken Clouds  
Wind Chill: 50°   Ceiling: 5000
Heat Index: 50°   Visibility: 10mi
Dew Point: 34°   Wind: 6mph
Humidity: 54%   Direction: 90°E
Pressure: 30.33"   Gusts: NA
Location:  35.3343°N, 89.9316°W
Report Text: KNQA 211750Z 09005KT 10SM SCT020 BKN050 10/01 A3033
Loading
Personal Weather Stations






























Interactive Weather Map New forecast layout! Learn more

10-Day Weather Forecast

Advertisements
Track Severe Weather on mobile